sensor_id;sensor_type;location;lat;lon;timestamp;P1;durP1;ratioP1;P2;durP2;ratioP2
12493;SDS011;8260;51.422;6.786;2022-12-18T00:00:03;19.07;;;10.97;;
12493;SDS011;8260;51.422;6.786;2022-12-18T00:02:32;19.67;;;11.27;;
12493;SDS011;8260;51.422;6.786;2022-12-18T00:05:01;17.93;;;11.33;;
12493;SDS011;8260;51.422;6.786;2022-12-18T00:07:29;17.73;;;10.53;;
12493;SDS011;8260;51.422;6.786;2022-12-18T00:09:58;18.57;;;11.43;;
12493;SDS011;8260;51.422;6.786;2022-12-18T00:12:26;17.20;;;10.13;;
12493;SDS011;8260;51.422;6.786;2022-12-18T00:14:55;20.40;;;11.53;;
12493;SDS011;8260;51.422;6.786;2022-12-18T00:17:24;17.97;;;10.50;;
12493;SDS011;8260;51.422;6.786;2022-12-18T00:19:53;19.33;;;9.50;;
12493;SDS011;8260;51.422;6.786;2022-12-18T00:22:22;13.80;;;9.63;;
12493;SDS011;8260;51.422;6.786;2022-12-18T00:24:50;15.53;;;10.47;;
12493;SDS011;8260;51.422;6.786;2022-12-18T00:27:18;18.07;;;10.43;;
12493;SDS011;8260;51.422;6.786;2022-12-18T00:29:47;15.10;;;9.00;;
12493;SDS011;8260;51.422;6.786;2022-12-18T00:32:16;14.13;;;9.57;;
12493;SDS011;8260;51.422;6.786;2022-12-18T00:34:44;20.17;;;10.50;;
12493;SDS011;8260;51.422;6.786;2022-12-18T00:37:14;14.57;;;9.33;;
12493;SDS011;8260;51.422;6.786;2022-12-18T00:39:47;14.93;;;9.17;;
12493;SDS011;8260;51.422;6.786;2022-12-18T00:42:16;15.10;;;8.93;;
12493;SDS011;8260;51.422;6.786;2022-12-18T00:45:03;14.50;;;8.83;;
12493;SDS011;8260;51.422;6.786;2022-12-18T00:47:38;16.20;;;9.30;;
12493;SDS011;8260;51.422;6.786;2022-12-18T00:50:06;14.67;;;8.63;;
12493;SDS011;8260;51.422;6.786;2022-12-18T00:52:36;15.20;;;8.77;;
12493;SDS011;8260;51.422;6.786;2022-12-18T00:55:05;15.47;;;8.43;;
12493;SDS011;8260;51.422;6.786;2022-12-18T00:57:34;13.40;;;8.33;;
12493;SDS011;8260;51.422;6.786;2022-12-18T01:00:02;16.10;;;8.80;;
12493;SDS011;8260;51.422;6.786;2022-12-18T01:02:31;13.77;;;8.27;;
12493;SDS011;8260;51.422;6.786;2022-12-18T01:04:59;17.00;;;8.70;;
12493;SDS011;8260;51.422;6.786;2022-12-18T01:07:28;17.97;;;8.83;;
12493;SDS011;8260;51.422;6.786;2022-12-18T01:09:58;12.53;;;7.70;;
12493;SDS011;8260;51.422;6.786;2022-12-18T01:12:26;12.33;;;7.67;;
12493;SDS011;8260;51.422;6.786;2022-12-18T01:14:54;15.20;;;8.90;;
12493;SDS011;8260;51.422;6.786;2022-12-18T01:17:23;15.83;;;7.73;;
12493;SDS011;8260;51.422;6.786;2022-12-18T01:19:51;11.87;;;7.40;;
12493;SDS011;8260;51.422;6.786;2022-12-18T01:22:20;11.13;;;7.00;;
12493;SDS011;8260;51.422;6.786;2022-12-18T01:24:48;14.97;;;8.33;;
12493;SDS011;8260;51.422;6.786;2022-12-18T01:27:18;11.27;;;7.47;;
12493;SDS011;8260;51.422;6.786;2022-12-18T01:29:47;12.63;;;6.93;;
12493;SDS011;8260;51.422;6.786;2022-12-18T01:32:15;11.40;;;6.80;;
12493;SDS011;8260;51.422;6.786;2022-12-18T01:34:43;9.43;;;6.77;;
12493;SDS011;8260;51.422;6.786;2022-12-18T01:37:12;13.47;;;7.20;;
12493;SDS011;8260;51.422;6.786;2022-12-18T01:39:40;14.27;;;7.93;;
12493;SDS011;8260;51.422;6.786;2022-12-18T01:42:10;11.23;;;7.37;;
12493;SDS011;8260;51.422;6.786;2022-12-18T01:44:51;12.57;;;6.87;;
12493;SDS011;8260;51.422;6.786;2022-12-18T01:47:21;12.57;;;7.70;;
12493;SDS011;8260;51.422;6.786;2022-12-18T01:49:51;11.93;;;7.23;;
12493;SDS011;8260;51.422;6.786;2022-12-18T01:52:20;12.87;;;6.63;;
12493;SDS011;8260;51.422;6.786;2022-12-18T01:54:49;13.03;;;7.23;;
12493;SDS011;8260;51.422;6.786;2022-12-18T01:57:19;11.00;;;6.43;;
12493;SDS011;8260;51.422;6.786;2022-12-18T01:59:50;11.70;;;7.13;;
12493;SDS011;8260;51.422;6.786;2022-12-18T02:02:20;12.30;;;7.30;;
12493;SDS011;8260;51.422;6.786;2022-12-18T02:04:48;10.30;;;6.57;;
12493;SDS011;8260;51.422;6.786;2022-12-18T02:07:20;13.33;;;6.63;;
12493;SDS011;8260;51.422;6.786;2022-12-18T02:09:50;12.50;;;6.67;;
12493;SDS011;8260;51.422;6.786;2022-12-18T02:12:21;12.77;;;6.87;;
12493;SDS011;8260;51.422;6.786;2022-12-18T02:14:53;10.53;;;6.83;;
12493;SDS011;8260;51.422;6.786;2022-12-18T02:17:23;12.53;;;8.07;;
12493;SDS011;8260;51.422;6.786;2022-12-18T02:19:58;12.50;;;6.97;;
12493;SDS011;8260;51.422;6.786;2022-12-18T02:22:34;11.53;;;7.27;;
12493;SDS011;8260;51.422;6.786;2022-12-18T02:25:11;11.30;;;6.63;;
12493;SDS011;8260;51.422;6.786;2022-12-18T02:27:43;11.10;;;6.43;;
12493;SDS011;8260;51.422;6.786;2022-12-18T02:30:13;13.33;;;7.77;;
12493;SDS011;8260;51.422;6.786;2022-12-18T02:32:43;12.37;;;6.70;;
12493;SDS011;8260;51.422;6.786;2022-12-18T02:35:13;13.40;;;8.47;;
12493;SDS011;8260;51.422;6.786;2022-12-18T02:37:43;11.40;;;7.33;;
12493;SDS011;8260;51.422;6.786;2022-12-18T02:40:13;13.93;;;7.23;;
12493;SDS011;8260;51.422;6.786;2022-12-18T02:42:43;10.93;;;7.03;;
12493;SDS011;8260;51.422;6.786;2022-12-18T02:45:12;12.37;;;7.57;;
12493;SDS011;8260;51.422;6.786;2022-12-18T02:47:42;14.00;;;7.33;;
12493;SDS011;8260;51.422;6.786;2022-12-18T02:50:14;11.87;;;7.53;;
12493;SDS011;8260;51.422;6.786;2022-12-18T02:52:47;12.37;;;7.00;;
12493;SDS011;8260;51.422;6.786;2022-12-18T02:55:20;12.80;;;7.33;;
12493;SDS011;8260;51.422;6.786;2022-12-18T02:57:54;16.00;;;6.83;;
12493;SDS011;8260;51.422;6.786;2022-12-18T03:00:24;11.70;;;7.40;;
12493;SDS011;8260;51.422;6.786;2022-12-18T03:02:54;10.50;;;6.67;;
12493;SDS011;8260;51.422;6.786;2022-12-18T03:05:27;13.13;;;7.20;;
12493;SDS011;8260;51.422;6.786;2022-12-18T03:07:59;11.77;;;6.60;;
12493;SDS011;8260;51.422;6.786;2022-12-18T03:10:29;13.53;;;7.00;;
12493;SDS011;8260;51.422;6.786;2022-12-18T03:13:02;12.57;;;7.33;;
12493;SDS011;8260;51.422;6.786;2022-12-18T03:15:31;14.27;;;7.57;;
12493;SDS011;8260;51.422;6.786;2022-12-18T03:18:04;11.47;;;7.00;;
12493;SDS011;8260;51.422;6.786;2022-12-18T03:20:34;10.13;;;6.73;;
12493;SDS011;8260;51.422;6.786;2022-12-18T03:23:04;12.80;;;7.17;;
12493;SDS011;8260;51.422;6.786;2022-12-18T03:25:35;11.23;;;7.30;;
12493;SDS011;8260;51.422;6.786;2022-12-18T03:28:06;14.60;;;6.70;;
12493;SDS011;8260;51.422;6.786;2022-12-18T03:30:37;12.27;;;7.73;;
12493;SDS011;8260;51.422;6.786;2022-12-18T03:33:08;9.83;;;6.50;;
12493;SDS011;8260;51.422;6.786;2022-12-18T03:35:37;11.97;;;7.80;;
12493;SDS011;8260;51.422;6.786;2022-12-18T03:38:07;11.47;;;7.00;;
12493;SDS011;8260;51.422;6.786;2022-12-18T03:40:38;12.90;;;7.73;;
12493;SDS011;8260;51.422;6.786;2022-12-18T03:43:11;14.77;;;7.50;;
12493;SDS011;8260;51.422;6.786;2022-12-18T03:45:47;14.10;;;7.73;;
12493;SDS011;8260;51.422;6.786;2022-12-18T03:48:17;12.50;;;7.97;;
12493;SDS011;8260;51.422;6.786;2022-12-18T03:50:48;12.80;;;7.27;;
12493;SDS011;8260;51.422;6.786;2022-12-18T03:53:22;14.60;;;7.53;;
12493;SDS011;8260;51.422;6.786;2022-12-18T03:55:51;11.70;;;6.90;;
12493;SDS011;8260;51.422;6.786;2022-12-18T03:58:24;11.13;;;6.93;;
12493;SDS011;8260;51.422;6.786;2022-12-18T04:00:53;14.23;;;7.40;;
12493;SDS011;8260;51.422;6.786;2022-12-18T04:03:23;12.20;;;6.87;;
12493;SDS011;8260;51.422;6.786;2022-12-18T04:05:52;12.27;;;7.77;;
12493;SDS011;8260;51.422;6.786;2022-12-18T04:08:22;10.87;;;6.73;;
12493;SDS011;8260;51.422;6.786;2022-12-18T04:10:51;8.47;;;6.13;;
12493;SDS011;8260;51.422;6.786;2022-12-18T04:13:27;13.20;;;7.40;;
12493;SDS011;8260;51.422;6.786;2022-12-18T04:15:56;13.77;;;6.93;;
12493;SDS011;8260;51.422;6.786;2022-12-18T04:18:24;11.17;;;6.43;;
12493;SDS011;8260;51.422;6.786;2022-12-18T04:20:53;9.97;;;6.03;;
12493;SDS011;8260;51.422;6.786;2022-12-18T04:23:22;10.80;;;6.20;;
12493;SDS011;8260;51.422;6.786;2022-12-18T04:25:50;11.27;;;6.53;;
12493;SDS011;8260;51.422;6.786;2022-12-18T04:28:18;11.33;;;6.77;;
12493;SDS011;8260;51.422;6.786;2022-12-18T04:30:48;10.97;;;6.60;;
12493;SDS011;8260;51.422;6.786;2022-12-18T04:33:17;10.90;;;6.87;;
12493;SDS011;8260;51.422;6.786;2022-12-18T04:35:46;10.40;;;6.40;;
12493;SDS011;8260;51.422;6.786;2022-12-18T04:38:14;11.10;;;6.60;;
12493;SDS011;8260;51.422;6.786;2022-12-18T04:40:43;10.33;;;6.50;;
12493;SDS011;8260;51.422;6.786;2022-12-18T04:43:11;13.53;;;7.27;;
12493;SDS011;8260;51.422;6.786;2022-12-18T04:45:39;9.67;;;6.77;;
12493;SDS011;8260;51.422;6.786;2022-12-18T04:48:09;10.90;;;6.40;;
12493;SDS011;8260;51.422;6.786;2022-12-18T04:50:38;13.37;;;7.13;;
12493;SDS011;8260;51.422;6.786;2022-12-18T04:53:06;10.30;;;5.87;;
12493;SDS011;8260;51.422;6.786;2022-12-18T04:55:35;9.23;;;6.03;;
12493;SDS011;8260;51.422;6.786;2022-12-18T04:58:04;11.13;;;6.10;;
12493;SDS011;8260;51.422;6.786;2022-12-18T05:00:32;10.33;;;6.20;;
12493;SDS011;8260;51.422;6.786;2022-12-18T05:03:00;10.87;;;5.80;;
12493;SDS011;8260;51.422;6.786;2022-12-18T05:05:30;8.90;;;6.30;;
12493;SDS011;8260;51.422;6.786;2022-12-18T05:07:59;10.43;;;5.87;;
12493;SDS011;8260;51.422;6.786;2022-12-18T05:10:28;10.33;;;6.00;;
12493;SDS011;8260;51.422;6.786;2022-12-18T05:13:03;8.53;;;5.80;;
12493;SDS011;8260;51.422;6.786;2022-12-18T05:15:32;12.63;;;6.67;;
12493;SDS011;8260;51.422;6.786;2022-12-18T05:18:00;8.67;;;5.80;;
12493;SDS011;8260;51.422;6.786;2022-12-18T05:20:31;9.20;;;5.80;;
12493;SDS011;8260;51.422;6.786;2022-12-18T05:23:00;10.27;;;6.00;;
12493;SDS011;8260;51.422;6.786;2022-12-18T05:25:28;10.20;;;6.20;;
12493;SDS011;8260;51.422;6.786;2022-12-18T05:27:56;8.67;;;6.13;;
12493;SDS011;8260;51.422;6.786;2022-12-18T05:30:25;8.70;;;5.27;;
12493;SDS011;8260;51.422;6.786;2022-12-18T05:32:53;11.10;;;6.80;;
12493;SDS011;8260;51.422;6.786;2022-12-18T05:35:22;10.03;;;6.47;;
12493;SDS011;8260;51.422;6.786;2022-12-18T05:37:52;10.70;;;6.50;;
12493;SDS011;8260;51.422;6.786;2022-12-18T05:40:20;11.20;;;6.33;;
12493;SDS011;8260;51.422;6.786;2022-12-18T05:42:48;12.73;;;6.60;;
12493;SDS011;8260;51.422;6.786;2022-12-18T05:45:17;9.97;;;6.63;;
12493;SDS011;8260;51.422;6.786;2022-12-18T05:47:46;10.23;;;6.40;;
12493;SDS011;8260;51.422;6.786;2022-12-18T05:50:15;9.90;;;6.10;;
12493;SDS011;8260;51.422;6.786;2022-12-18T05:52:43;10.67;;;6.33;;
12493;SDS011;8260;51.422;6.786;2022-12-18T05:55:13;12.57;;;6.43;;
12493;SDS011;8260;51.422;6.786;2022-12-18T05:57:41;10.70;;;6.47;;
12493;SDS011;8260;51.422;6.786;2022-12-18T06:00:10;11.00;;;6.33;;
12493;SDS011;8260;51.422;6.786;2022-12-18T06:02:39;11.97;;;6.83;;
12493;SDS011;8260;51.422;6.786;2022-12-18T06:05:07;9.33;;;6.27;;
12493;SDS011;8260;51.422;6.786;2022-12-18T06:07:37;12.50;;;6.67;;
12493;SDS011;8260;51.422;6.786;2022-12-18T06:10:05;11.60;;;6.37;;
12493;SDS011;8260;51.422;6.786;2022-12-18T06:12:35;8.47;;;6.37;;
12493;SDS011;8260;51.422;6.786;2022-12-18T06:15:04;12.43;;;6.93;;
12493;SDS011;8260;51.422;6.786;2022-12-18T06:17:33;11.67;;;6.97;;
12493;SDS011;8260;51.422;6.786;2022-12-18T06:20:01;12.60;;;7.57;;
12493;SDS011;8260;51.422;6.786;2022-12-18T06:22:30;12.47;;;6.73;;
12493;SDS011;8260;51.422;6.786;2022-12-18T06:24:58;13.07;;;7.17;;
12493;SDS011;8260;51.422;6.786;2022-12-18T06:27:27;11.17;;;7.03;;
12493;SDS011;8260;51.422;6.786;2022-12-18T06:29:56;11.60;;;6.87;;
12493;SDS011;8260;51.422;6.786;2022-12-18T06:32:25;12.63;;;7.00;;
12493;SDS011;8260;51.422;6.786;2022-12-18T06:34:53;10.77;;;6.97;;
12493;SDS011;8260;51.422;6.786;2022-12-18T06:37:22;13.00;;;6.80;;
12493;SDS011;8260;51.422;6.786;2022-12-18T06:39:52;11.93;;;6.67;;
12493;SDS011;8260;51.422;6.786;2022-12-18T06:42:20;11.93;;;6.73;;
12493;SDS011;8260;51.422;6.786;2022-12-18T06:44:49;11.07;;;6.67;;
12493;SDS011;8260;51.422;6.786;2022-12-18T06:47:19;10.87;;;6.67;;
12493;SDS011;8260;51.422;6.786;2022-12-18T06:49:47;11.17;;;6.17;;
12493;SDS011;8260;51.422;6.786;2022-12-18T06:52:16;9.60;;;6.13;;
12493;SDS011;8260;51.422;6.786;2022-12-18T06:54:44;10.63;;;6.00;;
12493;SDS011;8260;51.422;6.786;2022-12-18T06:57:12;9.87;;;6.30;;
12493;SDS011;8260;51.422;6.786;2022-12-18T06:59:41;10.17;;;6.40;;
12493;SDS011;8260;51.422;6.786;2022-12-18T07:02:10;11.33;;;6.60;;
12493;SDS011;8260;51.422;6.786;2022-12-18T07:04:40;10.70;;;6.50;;
12493;SDS011;8260;51.422;6.786;2022-12-18T07:07:09;10.07;;;6.13;;
12493;SDS011;8260;51.422;6.786;2022-12-18T07:09:37;9.57;;;6.10;;
12493;SDS011;8260;51.422;6.786;2022-12-18T07:12:05;11.03;;;7.27;;
12493;SDS011;8260;51.422;6.786;2022-12-18T07:14:34;11.73;;;6.93;;
12493;SDS011;8260;51.422;6.786;2022-12-18T07:17:02;11.33;;;6.97;;
12493;SDS011;8260;51.422;6.786;2022-12-18T07:19:32;12.40;;;6.93;;
12493;SDS011;8260;51.422;6.786;2022-12-18T07:22:02;11.97;;;7.03;;
12493;SDS011;8260;51.422;6.786;2022-12-18T07:24:32;12.27;;;6.57;;
12493;SDS011;8260;51.422;6.786;2022-12-18T07:27:01;11.77;;;6.27;;
12493;SDS011;8260;51.422;6.786;2022-12-18T07:29:29;12.23;;;6.53;;
12493;SDS011;8260;51.422;6.786;2022-12-18T07:31:58;14.23;;;6.97;;
12493;SDS011;8260;51.422;6.786;2022-12-18T07:34:26;10.97;;;6.90;;
12493;SDS011;8260;51.422;6.786;2022-12-18T07:36:55;12.13;;;6.17;;
12493;SDS011;8260;51.422;6.786;2022-12-18T07:39:25;10.50;;;6.37;;
12493;SDS011;8260;51.422;6.786;2022-12-18T07:41:53;12.17;;;6.90;;
12493;SDS011;8260;51.422;6.786;2022-12-18T07:44:46;14.77;;;6.57;;
12493;SDS011;8260;51.422;6.786;2022-12-18T07:47:15;13.77;;;7.33;;
12493;SDS011;8260;51.422;6.786;2022-12-18T07:49:43;13.03;;;6.77;;
12493;SDS011;8260;51.422;6.786;2022-12-18T07:52:11;11.00;;;7.23;;
12493;SDS011;8260;51.422;6.786;2022-12-18T07:54:41;12.17;;;6.90;;
12493;SDS011;8260;51.422;6.786;2022-12-18T07:57:09;13.13;;;6.93;;
12493;SDS011;8260;51.422;6.786;2022-12-18T07:59:58;11.80;;;6.83;;
12493;SDS011;8260;51.422;6.786;2022-12-18T08:02:29;11.73;;;6.60;;
12493;SDS011;8260;51.422;6.786;2022-12-18T08:04:58;12.97;;;6.90;;
12493;SDS011;8260;51.422;6.786;2022-12-18T08:07:26;14.50;;;6.77;;
12493;SDS011;8260;51.422;6.786;2022-12-18T08:09:57;12.40;;;7.03;;
12493;SDS011;8260;51.422;6.786;2022-12-18T08:12:25;13.10;;;6.53;;
12493;SDS011;8260;51.422;6.786;2022-12-18T08:14:54;11.10;;;7.20;;
12493;SDS011;8260;51.422;6.786;2022-12-18T08:17:22;11.20;;;7.40;;
12493;SDS011;8260;51.422;6.786;2022-12-18T08:19:51;11.90;;;7.27;;
12493;SDS011;8260;51.422;6.786;2022-12-18T08:22:19;12.63;;;6.57;;
12493;SDS011;8260;51.422;6.786;2022-12-18T08:24:47;12.63;;;7.33;;
12493;SDS011;8260;51.422;6.786;2022-12-18T08:27:17;16.67;;;7.50;;
12493;SDS011;8260;51.422;6.786;2022-12-18T08:29:55;12.90;;;7.57;;
12493;SDS011;8260;51.422;6.786;2022-12-18T08:32:23;15.03;;;7.80;;
12493;SDS011;8260;51.422;6.786;2022-12-18T08:34:52;12.43;;;7.40;;
12493;SDS011;8260;51.422;6.786;2022-12-18T08:37:20;13.67;;;7.40;;
12493;SDS011;8260;51.422;6.786;2022-12-18T08:39:49;12.97;;;7.27;;
12493;SDS011;8260;51.422;6.786;2022-12-18T08:42:18;12.17;;;7.93;;
12493;SDS011;8260;51.422;6.786;2022-12-18T08:45:05;15.27;;;9.07;;
12493;SDS011;8260;51.422;6.786;2022-12-18T08:47:33;13.40;;;7.53;;
12493;SDS011;8260;51.422;6.786;2022-12-18T08:50:02;15.17;;;7.97;;
12493;SDS011;8260;51.422;6.786;2022-12-18T08:52:31;14.17;;;7.10;;
12493;SDS011;8260;51.422;6.786;2022-12-18T08:54:59;13.60;;;7.50;;
12493;SDS011;8260;51.422;6.786;2022-12-18T08:57:29;12.93;;;7.43;;
12493;SDS011;8260;51.422;6.786;2022-12-18T08:59:57;11.30;;;6.73;;
12493;SDS011;8260;51.422;6.786;2022-12-18T09:02:26;12.77;;;7.53;;
12493;SDS011;8260;51.422;6.786;2022-12-18T09:04:54;9.73;;;6.40;;
12493;SDS011;8260;51.422;6.786;2022-12-18T09:07:23;15.00;;;7.23;;
12493;SDS011;8260;51.422;6.786;2022-12-18T09:09:51;10.23;;;6.60;;
12493;SDS011;8260;51.422;6.786;2022-12-18T09:12:20;11.10;;;7.13;;
12493;SDS011;8260;51.422;6.786;2022-12-18T09:14:49;12.13;;;7.17;;
12493;SDS011;8260;51.422;6.786;2022-12-18T09:17:18;10.67;;;7.20;;
12493;SDS011;8260;51.422;6.786;2022-12-18T09:19:46;10.17;;;7.03;;
12493;SDS011;8260;51.422;6.786;2022-12-18T09:22:15;10.37;;;6.93;;
12493;SDS011;8260;51.422;6.786;2022-12-18T09:24:43;10.90;;;6.70;;
12493;SDS011;8260;51.422;6.786;2022-12-18T09:27:12;9.13;;;6.43;;
12493;SDS011;8260;51.422;6.786;2022-12-18T09:29:40;11.57;;;6.77;;
12493;SDS011;8260;51.422;6.786;2022-12-18T09:32:10;9.57;;;6.47;;
12493;SDS011;8260;51.422;6.786;2022-12-18T09:34:45;9.10;;;6.43;;
12493;SDS011;8260;51.422;6.786;2022-12-18T09:37:14;8.27;;;5.37;;
12493;SDS011;8260;51.422;6.786;2022-12-18T09:39:42;10.10;;;6.13;;
12493;SDS011;8260;51.422;6.786;2022-12-18T09:42:12;8.83;;;5.67;;
12493;SDS011;8260;51.422;6.786;2022-12-18T09:44:42;6.70;;;5.03;;
12493;SDS011;8260;51.422;6.786;2022-12-18T09:47:14;9.83;;;5.93;;
12493;SDS011;8260;51.422;6.786;2022-12-18T09:49:46;9.30;;;6.40;;
12493;SDS011;8260;51.422;6.786;2022-12-18T09:52:16;7.63;;;5.20;;
12493;SDS011;8260;51.422;6.786;2022-12-18T09:54:46;8.27;;;5.40;;
12493;SDS011;8260;51.422;6.786;2022-12-18T09:57:17;8.30;;;6.10;;
12493;SDS011;8260;51.422;6.786;2022-12-18T09:59:47;7.90;;;5.40;;
12493;SDS011;8260;51.422;6.786;2022-12-18T10:02:19;9.17;;;5.60;;
12493;SDS011;8260;51.422;6.786;2022-12-18T10:04:52;9.60;;;6.07;;
12493;SDS011;8260;51.422;6.786;2022-12-18T10:07:24;8.13;;;5.40;;
12493;SDS011;8260;51.422;6.786;2022-12-18T10:09:56;7.40;;;5.33;;
12493;SDS011;8260;51.422;6.786;2022-12-18T10:12:27;7.30;;;5.17;;
12493;SDS011;8260;51.422;6.786;2022-12-18T10:15:01;9.57;;;5.80;;
12493;SDS011;8260;51.422;6.786;2022-12-18T10:17:35;7.57;;;4.90;;
12493;SDS011;8260;51.422;6.786;2022-12-18T10:20:10;7.30;;;4.87;;
12493;SDS011;8260;51.422;6.786;2022-12-18T10:22:43;8.57;;;5.30;;
12493;SDS011;8260;51.422;6.786;2022-12-18T10:25:16;7.13;;;4.97;;
12493;SDS011;8260;51.422;6.786;2022-12-18T10:27:46;7.87;;;5.47;;
12493;SDS011;8260;51.422;6.786;2022-12-18T10:30:16;8.03;;;5.13;;
12493;SDS011;8260;51.422;6.786;2022-12-18T10:32:47;10.77;;;5.30;;
12493;SDS011;8260;51.422;6.786;2022-12-18T10:35:16;10.97;;;6.70;;
12493;SDS011;8260;51.422;6.786;2022-12-18T10:37:59;11.23;;;6.53;;
12493;SDS011;8260;51.422;6.786;2022-12-18T10:40:28;9.20;;;6.20;;
12493;SDS011;8260;51.422;6.786;2022-12-18T10:43:03;8.60;;;5.80;;
12493;SDS011;8260;51.422;6.786;2022-12-18T10:45:32;12.00;;;6.03;;
12493;SDS011;8260;51.422;6.786;2022-12-18T10:48:02;7.70;;;5.30;;
12493;SDS011;8260;51.422;6.786;2022-12-18T10:50:31;11.33;;;6.00;;
12493;SDS011;8260;51.422;6.786;2022-12-18T10:53:22;9.27;;;5.57;;
12493;SDS011;8260;51.422;6.786;2022-12-18T10:55:51;8.57;;;6.00;;
12493;SDS011;8260;51.422;6.786;2022-12-18T10:58:22;10.87;;;5.53;;
12493;SDS011;8260;51.422;6.786;2022-12-18T11:01:09;9.17;;;6.23;;
12493;SDS011;8260;51.422;6.786;2022-12-18T11:03:39;10.30;;;6.17;;
12493;SDS011;8260;51.422;6.786;2022-12-18T11:06:10;12.87;;;7.50;;
12493;SDS011;8260;51.422;6.786;2022-12-18T11:08:39;13.43;;;9.13;;
12493;SDS011;8260;51.422;6.786;2022-12-18T11:11:15;11.20;;;7.20;;
12493;SDS011;8260;51.422;6.786;2022-12-18T11:13:48;10.07;;;8.00;;
12493;SDS011;8260;51.422;6.786;2022-12-18T11:16:19;10.27;;;6.40;;
12493;SDS011;8260;51.422;6.786;2022-12-18T11:18:49;6.80;;;5.90;;
12493;SDS011;8260;51.422;6.786;2022-12-18T11:21:17;9.83;;;6.30;;
12493;SDS011;8260;51.422;6.786;2022-12-18T11:23:46;7.43;;;5.67;;
12493;SDS011;8260;51.422;6.786;2022-12-18T11:26:15;9.20;;;5.70;;
12493;SDS011;8260;51.422;6.786;2022-12-18T11:28:44;10.43;;;5.90;;
12493;SDS011;8260;51.422;6.786;2022-12-18T11:31:19;10.30;;;6.07;;
12493;SDS011;8260;51.422;6.786;2022-12-18T11:33:52;13.10;;;5.87;;
12493;SDS011;8260;51.422;6.786;2022-12-18T11:36:44;9.37;;;5.63;;
12493;SDS011;8260;51.422;6.786;2022-12-18T11:39:14;8.83;;;5.60;;
12493;SDS011;8260;51.422;6.786;2022-12-18T11:41:46;9.20;;;6.03;;
12493;SDS011;8260;51.422;6.786;2022-12-18T11:44:35;9.57;;;6.37;;
12493;SDS011;8260;51.422;6.786;2022-12-18T11:47:05;9.37;;;5.77;;
12493;SDS011;8260;51.422;6.786;2022-12-18T11:49:39;9.67;;;5.43;;
12493;SDS011;8260;51.422;6.786;2022-12-18T11:52:09;11.37;;;6.77;;
12493;SDS011;8260;51.422;6.786;2022-12-18T11:54:43;10.47;;;6.53;;
12493;SDS011;8260;51.422;6.786;2022-12-18T11:57:13;10.40;;;7.13;;
12493;SDS011;8260;51.422;6.786;2022-12-18T11:59:48;7.93;;;6.33;;
12493;SDS011;8260;51.422;6.786;2022-12-18T12:02:24;9.77;;;6.43;;
12493;SDS011;8260;51.422;6.786;2022-12-18T12:05:04;11.60;;;5.83;;
12493;SDS011;8260;51.422;6.786;2022-12-18T12:07:41;8.37;;;6.27;;
12493;SDS011;8260;51.422;6.786;2022-12-18T12:10:18;9.13;;;6.43;;
12493;SDS011;8260;51.422;6.786;2022-12-18T12:12:56;9.67;;;6.80;;
12493;SDS011;8260;51.422;6.786;2022-12-18T12:15:29;9.20;;;5.97;;
12493;SDS011;8260;51.422;6.786;2022-12-18T12:18:05;8.77;;;6.00;;
12493;SDS011;8260;51.422;6.786;2022-12-18T12:20:42;11.73;;;6.97;;
12493;SDS011;8260;51.422;6.786;2022-12-18T12:23:14;9.10;;;6.23;;
12493;SDS011;8260;51.422;6.786;2022-12-18T12:25:44;14.47;;;7.03;;
12493;SDS011;8260;51.422;6.786;2022-12-18T12:28:17;8.27;;;6.40;;
12493;SDS011;8260;51.422;6.786;2022-12-18T12:30:50;11.50;;;6.73;;
12493;SDS011;8260;51.422;6.786;2022-12-18T12:33:26;10.17;;;6.27;;
12493;SDS011;8260;51.422;6.786;2022-12-18T12:36:01;9.10;;;6.47;;
12493;SDS011;8260;51.422;6.786;2022-12-18T12:38:33;11.07;;;7.13;;
12493;SDS011;8260;51.422;6.786;2022-12-18T12:41:04;10.27;;;7.10;;
12493;SDS011;8260;51.422;6.786;2022-12-18T12:43:53;11.60;;;7.03;;
12493;SDS011;8260;51.422;6.786;2022-12-18T12:46:22;10.23;;;6.83;;
12493;SDS011;8260;51.422;6.786;2022-12-18T12:48:53;9.13;;;6.77;;
12493;SDS011;8260;51.422;6.786;2022-12-18T12:51:26;9.63;;;6.37;;
12493;SDS011;8260;51.422;6.786;2022-12-18T12:53:56;11.57;;;7.77;;
12493;SDS011;8260;51.422;6.786;2022-12-18T12:56:27;11.53;;;7.27;;
12493;SDS011;8260;51.422;6.786;2022-12-18T12:58:58;13.30;;;7.40;;
12493;SDS011;8260;51.422;6.786;2022-12-18T13:01:30;10.80;;;7.43;;
12493;SDS011;8260;51.422;6.786;2022-12-18T13:04:03;11.93;;;7.73;;
12493;SDS011;8260;51.422;6.786;2022-12-18T13:06:37;11.27;;;7.27;;
12493;SDS011;8260;51.422;6.786;2022-12-18T13:09:11;12.03;;;7.83;;
12493;SDS011;8260;51.422;6.786;2022-12-18T13:11:40;12.73;;;7.80;;
12493;SDS011;8260;51.422;6.786;2022-12-18T13:14:27;12.30;;;7.97;;
12493;SDS011;8260;51.422;6.786;2022-12-18T13:20:10;10.97;;;7.73;;
12493;SDS011;8260;51.422;6.786;2022-12-18T13:22:44;12.57;;;8.77;;
12493;SDS011;8260;51.422;6.786;2022-12-18T13:28:00;12.67;;;8.37;;
12493;SDS011;8260;51.422;6.786;2022-12-18T13:36:34;14.77;;;8.63;;
12493;SDS011;8260;51.422;6.786;2022-12-18T13:39:20;12.77;;;8.33;;
12493;SDS011;8260;51.422;6.786;2022-12-18T13:44:58;15.00;;;8.53;;
12493;SDS011;8260;51.422;6.786;2022-12-18T13:47:27;14.73;;;8.60;;
12493;SDS011;8260;51.422;6.786;2022-12-18T13:49:59;27.63;;;13.73;;
12493;SDS011;8260;51.422;6.786;2022-12-18T13:52:33;25.87;;;16.27;;
12493;SDS011;8260;51.422;6.786;2022-12-18T13:55:05;25.83;;;15.20;;
12493;SDS011;8260;51.422;6.786;2022-12-18T13:57:35;17.20;;;11.53;;
12493;SDS011;8260;51.422;6.786;2022-12-18T14:00:17;15.27;;;9.23;;
12493;SDS011;8260;51.422;6.786;2022-12-18T14:02:51;13.43;;;9.20;;
12493;SDS011;8260;51.422;6.786;2022-12-18T14:05:23;15.53;;;9.13;;
12493;SDS011;8260;51.422;6.786;2022-12-18T14:07:51;15.63;;;9.87;;
12493;SDS011;8260;51.422;6.786;2022-12-18T14:10:23;16.40;;;9.33;;
12493;SDS011;8260;51.422;6.786;2022-12-18T14:13:15;14.07;;;9.47;;
12493;SDS011;8260;51.422;6.786;2022-12-18T14:15:46;15.70;;;9.67;;
12493;SDS011;8260;51.422;6.786;2022-12-18T14:18:19;14.70;;;9.60;;
12493;SDS011;8260;51.422;6.786;2022-12-18T14:20:49;16.47;;;10.53;;
12493;SDS011;8260;51.422;6.786;2022-12-18T14:23:25;15.50;;;9.97;;
12493;SDS011;8260;51.422;6.786;2022-12-18T14:25:56;14.73;;;9.13;;
12493;SDS011;8260;51.422;6.786;2022-12-18T14:28:31;17.63;;;10.80;;
12493;SDS011;8260;51.422;6.786;2022-12-18T14:30:59;17.83;;;10.73;;
12493;SDS011;8260;51.422;6.786;2022-12-18T14:33:27;17.90;;;11.87;;
12493;SDS011;8260;51.422;6.786;2022-12-18T14:35:57;21.47;;;13.83;;
12493;SDS011;8260;51.422;6.786;2022-12-18T14:38:28;29.23;;;19.00;;
12493;SDS011;8260;51.422;6.786;2022-12-18T14:40:58;25.50;;;15.67;;
12493;SDS011;8260;51.422;6.786;2022-12-18T14:43:28;18.37;;;11.37;;
12493;SDS011;8260;51.422;6.786;2022-12-18T14:45:57;20.40;;;12.00;;
12493;SDS011;8260;51.422;6.786;2022-12-18T14:48:32;15.00;;;10.50;;
12493;SDS011;8260;51.422;6.786;2022-12-18T14:51:02;15.43;;;10.40;;
12493;SDS011;8260;51.422;6.786;2022-12-18T14:53:35;15.97;;;10.50;;
12493;SDS011;8260;51.422;6.786;2022-12-18T14:56:13;17.43;;;10.57;;
12493;SDS011;8260;51.422;6.786;2022-12-18T14:58:48;18.10;;;9.93;;
12493;SDS011;8260;51.422;6.786;2022-12-18T15:01:18;15.13;;;10.07;;
12493;SDS011;8260;51.422;6.786;2022-12-18T15:03:46;17.90;;;10.50;;
12493;SDS011;8260;51.422;6.786;2022-12-18T15:06:16;18.30;;;11.43;;
12493;SDS011;8260;51.422;6.786;2022-12-18T15:08:44;22.87;;;12.43;;
12493;SDS011;8260;51.422;6.786;2022-12-18T15:11:32;17.80;;;11.17;;
12493;SDS011;8260;51.422;6.786;2022-12-18T15:16:52;16.53;;;10.83;;
12493;SDS011;8260;51.422;6.786;2022-12-18T15:19:21;18.93;;;11.60;;
12493;SDS011;8260;51.422;6.786;2022-12-18T15:21:50;16.70;;;10.93;;
12493;SDS011;8260;51.422;6.786;2022-12-18T15:24:18;18.07;;;11.27;;
12493;SDS011;8260;51.422;6.786;2022-12-18T15:26:49;18.43;;;11.10;;